UNNT/OVB METAR and TAF weather

Enter ICAO airport designator
Station Type Date Time Source
UNNT METAR 2021/01/27 14:00 UTC NOAA

UNNT 271400Z 24005MPS 9999 -SHSN SCT012 OVC032CB M03/M05 Q1022 R25/490240 R16/491030 NOSIG RMK QFE756/1009


Station Type Date Time Source
UNNT Decoded METAR 2021/01/27 14:00 UTC NOAA

Station name not available
Jan 27, 2021 - 09:00 AM EST / 2021.01.27 1400 UTC
Wind: from the WSW (240 degrees) at 11 MPH (10 KT):0
Visibility: greater than 7 mile(s):0
Sky conditions: overcast
Weather: light snow showers; Cumulonimbus clouds observed
Temperature: 26 F (-3 C)
Windchill: 15 F (-9 C):1
Dew Point: 23 F (-5 C)
Relative Humidity: 86%
Pressure (altimeter): 30.18 in. Hg (1022 hPa)
ob: UNNT 271400Z 24005MPS 9999 -SHSN SCT012 OVC032CB M03/M05 Q1022 R25/490240 R16/491030 NOSIG RMK QFE756/1009
cycle: 14

Station Type Date Time Source
UNNT TAF 2021/01/27 12:24 UTC NOAA

TAF UNNT 271100Z 2712/2812 24008G14MPS 8000 -SHSN BKN016CB
TEMPO 2712/2803 3000 -SHSN DRSN BKN010 BKN020CB
BECMG 2714/2717 23003G08MPS
TEMPO 2803/2812 21007G13MPS 3000 -SHSN DRSN BKN010CB

Example: see airport list